Time;durP1;ratioP1;P1;durP2;ratioP2;P2;SDS_P1;SDS_P2;PMS_P1;PMS_P2;Temp;Humidity;BMP_temperature;BMP_pressure;BME280_temperature;BME280_humidity;BME280_pressure;Samples;Min_cycle;Max_cycle;Signal;HPM_P1;HPM_P2
2021/12/19 00:02:24;;;;;;;2.75;1.13;;;;;;;-6.12;100.00;99769.94;5112976;28;20140;-72
2021/12/19 00:10:19;;;;;;;1.90;1.40;;;;;;;-6.07;100.00;99780.06;5112696;28;20067;-72
2021/12/19 00:12:46;;;;;;;2.00;1.30;;;;;;;-6.20;100.00;99786.84;5112587;28;20479;-72
2021/12/19 00:15:14;;;;;;;2.00;1.33;;;;;;;-6.19;100.00;99784.31;5112390;28;20094;-72
2021/12/19 00:17:41;;;;;;;1.05;1.05;;;;;;;-6.25;100.00;99776.72;5112643;28;20134;-72
2021/12/19 00:20:09;;;;;;;2.80;1.75;;;;;;;-6.22;100.00;99776.72;5123048;22;20139;-68
2021/12/19 00:22:36;;;;;;;2.92;1.60;;;;;;;-6.22;100.00;99781.78;5112567;28;20079;-64
2021/12/19 00:25:04;;;;;;;3.80;1.48;;;;;;;-6.07;100.00;99785.97;5112552;28;20054;-64
2021/12/19 00:27:31;;;;;;;1.65;1.25;;;;;;;-6.03;100.00;99790.19;5112882;28;20402;-68
2021/12/19 00:29:58;;;;;;;1.83;1.42;;;;;;;-6.04;100.00;99785.94;5112617;28;20089;-69
2021/12/19 00:32:26;;;;;;;3.20;1.30;;;;;;;-6.04;100.00;99780.88;5112626;28;20048;-64
2021/12/19 00:34:53;;;;;;;1.48;1.30;;;;;;;-6.11;100.00;99786.84;5112178;28;20058;-65
2021/12/19 00:37:21;;;;;;;1.75;1.40;;;;;;;-6.15;100.00;99780.09;5112502;28;20134;-68
2021/12/19 00:39:49;;;;;;;2.65;1.60;;;;;;;-6.00;100.00;99776.66;5112504;28;20138;-68
2021/12/19 00:42:27;;;;;;;2.13;1.42;;;;;;;-5.95;100.00;99772.44;5112164;28;20126;-69
2021/12/19 00:44:54;;;;;;;3.28;1.50;;;;;;;-6.10;100.00;99783.44;5112449;28;20059;-65
2021/12/19 00:47:21;;;;;;;2.20;1.20;;;;;;;-5.86;100.00;99779.09;5112537;28;20052;-68
2021/12/19 00:49:49;;;;;;;1.30;1.20;;;;;;;-5.99;100.00;99783.41;5116254;28;20074;-69
2021/12/19 00:52:16;;;;;;;1.88;1.20;;;;;;;-6.08;100.00;99784.28;5116285;28;20152;-68
2021/12/19 00:54:43;;;;;;;1.50;1.27;;;;;;;-6.21;100.00;99782.63;5116436;28;20138;-68
2021/12/19 00:57:10;;;;;;;1.77;1.50;;;;;;;-6.19;100.00;99788.53;5116327;28;20075;-68
2021/12/19 00:59:37;;;;;;;2.10;1.58;;;;;;;-6.18;100.00;99790.22;5116108;28;20053;-68
2021/12/19 01:02:05;;;;;;;3.22;2.17;;;;;;;-6.16;100.00;99791.91;5116568;28;20131;-68
2021/12/19 01:04:31;;;;;;;4.20;1.88;;;;;;;-6.07;100.00;99785.13;5116115;28;20039;-65
2021/12/19 01:07:01;;;;;;;2.92;1.80;;;;;;;-6.01;100.00;99793.56;5116165;28;20134;-67
2021/12/19 01:09:30;;;;;;;2.63;1.75;;;;;;;-5.97;100.00;99789.31;5115951;28;20044;-69
2021/12/19 01:11:57;;;;;;;2.63;1.90;;;;;;;-6.12;100.00;99800.31;5116066;28;20048;-64
2021/12/19 01:14:24;;;;;;;4.22;2.05;;;;;;;-6.23;100.00;99802.06;5115959;28;20436;-64
2021/12/19 01:16:51;;;;;;;3.42;2.33;;;;;;;-6.26;100.00;99799.53;5115900;28;20126;-64
2021/12/19 01:19:18;;;;;;;3.08;1.63;;;;;;;-6.10;100.00;99798.63;5126493;22;20049;-72
2021/12/19 01:21:46;;;;;;;3.47;2.03;;;;;;;-6.15;100.00;99800.34;5115746;28;20071;-72
2021/12/19 01:24:14;;;;;;;3.22;1.90;;;;;;;-6.23;100.00;99804.59;5115670;28;20141;-72
2021/12/19 01:26:42;;;;;;;3.55;1.80;;;;;;;-6.17;100.00;99800.31;5115707;28;20134;-72
2021/12/19 01:29:09;;;;;;;2.15;1.80;;;;;;;-6.16;100.00;99796.13;5115679;28;20043;-72
2021/12/19 01:31:36;;;;;;;1.60;1.45;;;;;;;-6.28;100.00;99801.22;5115662;28;20054;-73
2021/12/19 01:34:03;;;;;;;1.90;1.40;;;;;;;-6.15;100.00;99805.41;5115701;28;20054;-72
2021/12/19 01:36:30;;;;;;;3.45;1.70;;;;;;;-6.10;99.70;99796.09;5115456;28;20050;-72
2021/12/19 01:38:58;;;;;;;1.75;1.30;;;;;;;-6.17;99.78;99794.44;5115320;28;20082;-72
2021/12/19 01:41:26;;;;;;;2.55;1.60;;;;;;;-6.44;100.00;99802.94;5115580;28;20082;-72
2021/12/19 01:43:54;;;;;;;4.28;1.83;;;;;;;-6.52;100.00;99810.53;5115428;28;20097;-72
2021/12/19 01:46:20;;;;;;;;;;;;;;;-6.45;99.93;99808.81;5115696;28;20560;-72
2021/12/19 01:48:48;;;;;;;1.40;1.30;;;;;;;-6.45;100.00;99808.81;5115101;28;19919;-72
2021/12/19 01:51:15;;;;;;;1.98;1.60;;;;;;;-6.51;99.19;99802.09;5115346;28;20044;-72
2021/12/19 01:53:42;;;;;;;;;;;;;;;-6.45;99.96;99803.75;5115686;28;20086;-72
2021/12/19 01:56:09;;;;;;;2.22;1.42;;;;;;;-6.46;99.62;99807.16;5115175;28;20356;-72
2021/12/19 01:58:38;;;;;;;1.95;1.55;;;;;;;-6.53;100.00;99805.47;5115022;28;20079;-72
2021/12/19 02:01:05;;;;;;;2.47;1.30;;;;;;;-6.55;100.00;99797.88;5114365;28;20047;-72
2021/12/19 02:03:32;;;;;;;1.27;0.95;;;;;;;-6.47;100.00;99796.19;5114923;28;20051;-73
2021/12/19 02:05:59;;;;;;;1.60;1.17;;;;;;;-6.46;100.00;99791.97;5114732;28;20090;-72
2021/12/19 02:08:26;;;;;;;2.10;1.50;;;;;;;-6.40;99.20;99790.25;5114920;28;20569;-72
2021/12/19 02:10:53;;;;;;;1.40;1.20;;;;;;;-6.42;99.85;99791.97;5115013;28;20494;-72
2021/12/19 02:13:20;;;;;;;1.65;1.55;;;;;;;-6.65;100.00;99784.38;5114912;28;20564;-72
2021/12/19 02:15:48;;;;;;;;;;;;;;;-6.58;100.00;99802.94;5115189;28;20135;-72
2021/12/19 02:18:23;;;;;;;1.90;1.25;;;;;;;-6.39;100.00;99798.72;5114530;28;19920;-72
2021/12/19 02:20:54;;;;;;;1.60;1.40;;;;;;;-6.43;99.79;99800.38;5114186;28;20055;-72
2021/12/19 02:23:25;;;;;;;1.73;1.38;;;;;;;-6.59;99.92;99798.72;5114462;28;20142;-72
2021/12/19 02:25:53;;;;;;;2.40;1.40;;;;;;;-6.59;100.00;99803.78;5114479;28;20051;-72
2021/12/19 02:28:20;;;;;;;4.13;1.40;;;;;;;-6.66;99.97;99804.63;5114704;28;20067;-72
2021/12/19 02:30:48;;;;;;;2.17;1.40;;;;;;;-6.52;99.52;99805.47;5114337;28;20130;-72
2021/12/19 02:33:20;;;;;;;3.38;1.50;;;;;;;-6.82;100.00;99802.09;5114384;28;20553;-71
2021/12/19 02:35:55;;;;;;;1.95;1.30;;;;;;;-6.97;100.00;99804.59;5114231;28;20047;-72
2021/12/19 02:49:24;;;;;;;4.03;1.42;;;;;;;-6.87;100.00;99816.41;5113884;28;20051;-72
2021/12/19 02:51:52;;;;;;;1.38;1.10;;;;;;;-6.75;100.00;99827.41;5114186;28;20451;-73
2021/12/19 02:54:21;;;;;;;1.40;1.30;;;;;;;-6.82;100.00;99812.22;5114327;28;20047;-72
2021/12/19 02:56:48;;;;;;;1.70;1.20;;;;;;;-6.75;99.30;99800.41;5114400;28;20050;-72
2021/12/19 02:59:15;;;;;;;2.75;1.60;;;;;;;-6.61;99.97;99802.94;5113906;28;20051;-72
2021/12/19 03:01:44;;;;;;;1.75;1.00;;;;;;;-6.59;99.93;99802.09;5113730;28;20044;-72
2021/12/19 03:04:12;;;;;;;1.02;1.00;;;;;;;-6.41;99.14;99800.41;5113898;28;20481;-73
2021/12/19 03:06:43;;;;;;;;;;;;;;;-6.44;98.91;99790.28;5114625;28;20148;-73
2021/12/19 03:09:10;;;;;;;0.90;0.90;;;;;;;-6.43;98.10;99797.84;5113958;28;19998;-73
2021/12/19 03:19:48;;;;;;;1.10;1.00;;;;;;;-6.69;99.10;99807.16;5123712;22;20052;-66
2021/12/19 03:22:15;;;;;;;1.27;1.05;;;;;;;-6.82;98.16;99803.78;5113504;28;20130;-65
2021/12/19 03:24:42;;;;;;;1.27;1.00;;;;;;;-6.90;99.01;99808.00;5113683;28;20226;-64
2021/12/19 03:27:11;;;;;;;2.65;0.98;;;;;;;-6.93;98.70;99811.38;5113523;28;20050;-65
2021/12/19 03:29:38;;;;;;;1.38;1.00;;;;;;;-7.01;99.30;99810.53;5113666;28;20047;-63
2021/12/19 03:32:05;;;;;;;2.22;1.15;;;;;;;-7.08;100.00;99809.66;5113312;28;20150;-67
2021/12/19 03:34:34;;;;;;;1.15;0.93;;;;;;;-6.95;100.00;99810.53;5113370;28;20559;-63
2021/12/19 03:37:01;;;;;;;1.20;1.10;;;;;;;-6.89;99.79;99807.97;5113244;28;20058;-63
2021/12/19 03:39:36;;;;;;;1.95;1.00;;;;;;;-7.04;100.00;99801.25;5113078;28;20154;-63
2021/12/19 03:42:04;;;;;;;1.27;1.00;;;;;;;-7.06;99.90;99800.41;5113423;28;20039;-67
2021/12/19 03:44:33;;;;;;;1.85;1.10;;;;;;;-6.89;99.58;99807.16;5113010;28;20524;-64
2021/12/19 03:47:00;;;;;;;3.72;1.00;;;;;;;-6.83;99.53;99809.69;5113002;28;20081;-63
2021/12/19 03:49:27;;;;;;;0.90;0.90;;;;;;;-6.81;99.54;99813.03;5113105;28;20130;-64
2021/12/19 03:51:54;;;;;;;2.85;1.00;;;;;;;-6.65;99.11;99802.09;5112959;28;20044;-64
2021/12/19 03:54:22;;;;;;;1.08;0.98;;;;;;;-6.73;99.01;99811.38;5112817;28;20044;-63
2021/12/19 03:56:49;;;;;;;1.88;1.10;;;;;;;-6.80;99.11;99812.22;5112728;28;20493;-64
2021/12/19 03:59:15;;;;;;;1.23;0.90;;;;;;;-6.76;99.37;99823.16;5112836;28;20044;-63
2021/12/19 04:01:49;;;;;;;1.70;1.17;;;;;;;-6.62;98.96;99818.97;5113197;28;20067;-62
2021/12/19 04:04:16;;;;;;;1.83;1.00;;;;;;;-6.49;98.29;99829.94;5112917;28;20139;-63
2021/12/19 04:06:43;;;;;;;0.98;0.98;;;;;;;-6.79;98.05;99824.84;5112826;28;20138;-63
2021/12/19 04:09:10;;;;;;;4.07;1.00;;;;;;;-6.89;98.59;99825.69;5112852;28;20082;-65
2021/12/19 04:11:37;;;;;;;1.58;1.10;;;;;;;-6.74;98.47;99829.91;5112715;28;20576;-64
2021/12/19 04:14:04;;;;;;;2.00;1.15;;;;;;;-7.11;99.27;99837.47;5112734;28;20495;-66
2021/12/19 04:16:31;;;;;;;3.75;1.02;;;;;;;-7.18;99.79;99839.97;5112633;28;20131;-66
2021/12/19 04:19:00;;;;;;;1.38;0.98;;;;;;;-7.03;99.49;99840.84;5112832;28;20044;-66
2021/12/19 04:21:26;;;;;;;1.00;0.90;;;;;;;-7.04;99.44;99851.81;5112590;28;20122;-66
2021/12/19 04:23:53;;;;;;;0.90;0.90;;;;;;;-7.05;98.78;99847.59;5111978;28;20127;-64
2021/12/19 04:26:20;;;;;;;0.80;0.80;;;;;;;-6.94;99.22;99846.75;5112456;28;20058;-66
2021/12/19 04:28:47;;;;;;;1.70;1.00;;;;;;;-7.02;98.96;99859.38;5112587;28;20138;-66
2021/12/19 04:31:14;;;;;;;1.45;1.15;;;;;;;-6.74;98.59;99859.44;5113031;28;20146;-65
2021/12/19 04:33:42;;;;;;;4.22;0.90;;;;;;;-6.81;98.49;99848.47;5112768;28;20130;-68
2021/12/19 04:36:16;;;;;;;1.15;0.90;;;;;;;-6.96;99.06;99854.38;5112602;28;20101;-69
2021/12/19 04:53:03;;;;;;;1.20;1.10;;;;;;;-6.59;98.86;99857.75;5089765;28;20117;-69
2021/12/19 05:01:10;;;;;;;1.55;1.27;;;;;;;-6.69;99.29;99862.81;5088941;28;20056;-67
2021/12/19 05:03:45;;;;;;;2.63;1.48;;;;;;;-6.53;98.94;99871.25;5089371;28;20371;-68
2021/12/19 05:06:19;;;;;;;2.38;1.67;;;;;;;-6.52;98.78;99871.28;5089543;28;20044;-68
2021/12/19 05:14:18;;;;;;;1.27;1.15;;;;;;;-6.45;98.28;99874.63;5089502;28;20513;-69
2021/12/19 05:16:48;;;;;;;1.92;1.25;;;;;;;-6.45;98.50;99880.53;5089332;28;20131;-68
2021/12/19 05:19:24;;;;;;;1.17;1.02;;;;;;;-6.42;98.21;99880.56;5089694;28;20079;-68
2021/12/19 05:21:55;;;;;;;1.17;1.08;;;;;;;-6.66;99.02;99888.94;5089010;28;20048;-68
2021/12/19 05:24:45;;;;;;;1.10;1.00;;;;;;;-6.64;99.80;99892.34;5088927;28;20051;-69
2021/12/19 05:27:12;;;;;;;1.65;1.05;;;;;;;-6.53;98.96;99897.41;5088989;28;20048;-68
2021/12/19 05:29:40;;;;;;;1.10;1.00;;;;;;;-6.59;98.96;99897.41;5088898;28;20478;-68
2021/12/19 05:32:09;;;;;;;1.13;1.02;;;;;;;-6.68;99.61;99904.97;5088838;28;20067;-69
2021/12/19 05:34:37;;;;;;;0.88;0.88;;;;;;;-6.46;99.28;99905.84;5089104;28;20123;-69
2021/12/19 05:45:20;;;;;;;2.78;1.30;;;;;;;-6.59;99.29;99910.06;5088862;28;20467;-64
2021/12/19 05:47:50;;;;;;;1.02;0.88;;;;;;;-6.62;99.08;99922.72;5088892;28;20054;-65
2021/12/19 05:50:19;;;;;;;2.35;1.15;;;;;;;-6.66;98.81;99918.47;5088615;28;20131;-63
2021/12/19 05:52:48;;;;;;;2.55;1.20;;;;;;;-6.65;98.76;99925.25;5088726;28;20058;-64
2021/12/19 05:55:16;;;;;;;1.52;1.20;;;;;;;-6.85;98.91;99920.13;5078376;28;20399;-65
2021/12/19 05:57:43;;;;;;;1.63;1.23;;;;;;;-6.76;98.92;99924.38;5074844;28;20060;-64
2021/12/19 06:00:14;;;;;;;0.90;0.90;;;;;;;-6.74;98.99;99931.13;5074865;28;20139;-69
2021/12/19 06:02:41;;;;;;;1.73;1.25;;;;;;;-6.86;98.65;99928.56;5074757;28;20052;-64
2021/12/19 06:05:12;;;;;;;2.00;1.10;;;;;;;-6.70;98.12;99937.88;5074801;28;20048;-67
2021/12/19 06:07:39;;;;;;;1.85;1.10;;;;;;;-6.67;97.65;99942.09;5075165;28;20044;-63
2021/12/19 06:10:07;;;;;;;1.42;1.30;;;;;;;-6.81;97.12;99958.09;5075257;28;20072;-68
2021/12/19 06:12:34;;;;;;;1.30;1.20;;;;;;;-6.93;97.69;99965.66;5075036;28;20045;-68
2021/12/19 06:15:01;;;;;;;1.30;1.10;;;;;;;-6.87;97.96;99967.34;5075054;28;20044;-65
2021/12/19 06:17:28;;;;;;;3.53;1.25;;;;;;;-6.98;98.12;99979.13;5074733;28;20044;-68
2021/12/19 06:19:55;;;;;;;2.63;1.30;;;;;;;-7.16;98.57;99985.78;5058608;22;20133;-72
2021/12/19 06:22:24;;;;;;;2.17;1.25;;;;;;;-7.15;99.16;99989.16;5014774;28;20145;-73
2021/12/19 06:24:51;;;;;;;1.38;1.10;;;;;;;-7.06;98.82;99992.56;5014817;28;20145;-72
2021/12/19 06:27:18;;;;;;;1.90;1.33;;;;;;;-6.96;98.49;99996.00;5014899;28;20452;-72
2021/12/19 06:29:45;;;;;;;1.08;1.00;;;;;;;-6.90;97.73;99998.53;5014435;28;20491;-72
2021/12/19 06:32:12;;;;;;;2.22;1.30;;;;;;;-7.03;97.99;100000.16;5014560;28;20046;-72
2021/12/19 06:34:39;;;;;;;1.42;1.10;;;;;;;-6.91;97.77;100006.09;5014502;28;20077;-72
2021/12/19 06:37:09;;;;;;;2.08;1.35;;;;;;;-6.92;97.49;100004.41;5014558;28;20133;-72
2021/12/19 06:39:39;;;;;;;1.23;1.13;;;;;;;-6.92;97.70;100014.53;5014435;28;20046;-72
2021/12/19 06:42:08;;;;;;;1.17;1.08;;;;;;;-6.95;97.70;100025.50;5014314;28;20053;-72
2021/12/19 06:44:35;;;;;;;1.38;1.02;;;;;;;-7.10;98.16;100038.06;5014128;28;20050;-72
2021/12/19 06:47:04;;;;;;;1.30;1.20;;;;;;;-7.10;98.07;100033.84;5014172;28;20496;-72
2021/12/19 06:49:31;;;;;;;1.33;1.15;;;;;;;-7.07;98.15;100040.59;5014237;28;20056;-72
2021/12/19 06:51:58;;;;;;;1.38;1.10;;;;;;;-7.14;97.75;100039.75;5014141;28;20097;-72
2021/12/19 06:54:25;;;;;;;1.67;1.10;;;;;;;-7.08;97.42;100054.09;5014294;28;20078;-72
2021/12/19 06:56:53;;;;;;;1.23;1.10;;;;;;;-7.12;97.39;100058.25;5014161;28;20124;-72
2021/12/19 06:59:20;;;;;;;1.00;1.00;;;;;;;-7.08;97.56;100062.50;5014012;28;20128;-72
2021/12/19 07:01:47;;;;;;;1.25;1.15;;;;;;;-7.20;97.88;100071.72;5013902;28;20049;-72
2021/12/19 07:04:14;;;;;;;1.30;1.20;;;;;;;-7.26;98.22;100073.38;5013853;28;20554;-72
2021/12/19 07:06:41;;;;;;;3.60;1.25;;;;;;;-7.20;97.85;100081.81;5013091;28;20128;-72
2021/12/19 07:09:08;;;;;;;1.10;1.00;;;;;;;-7.17;97.39;100086.88;5013852;28;20141;-72
2021/12/19 07:11:35;;;;;;;1.80;1.13;;;;;;;-7.21;96.94;100091.09;5013748;28;20066;-73
2021/12/19 07:14:04;;;;;;;1.13;1.00;;;;;;;-7.11;96.81;100094.53;5013635;28;20042;-73
2021/12/19 07:16:31;;;;;;;1.20;1.10;;;;;;;-7.23;97.38;100107.94;5013977;28;20107;-73
2021/12/19 07:18:58;;;;;;;1.42;1.27;;;;;;;-7.21;96.53;100107.94;5026202;23;20084;-63
2021/12/19 07:21:25;;;;;;;1.10;1.00;;;;;;;-7.33;97.36;100114.59;5014741;28;20508;-67
2021/12/19 07:23:52;;;;;;;1.42;1.13;;;;;;;-7.37;97.13;100120.47;5013615;28;20054;-66
2021/12/19 07:26:19;;;;;;;1.83;1.38;;;;;;;-7.20;96.31;100125.63;5013528;28;20136;-64
2021/12/19 07:28:48;;;;;;;0.77;0.77;;;;;;;-7.19;96.13;100126.47;5013377;28;20153;-69
2021/12/19 07:31:18;;;;;;;1.75;1.48;;;;;;;-7.30;95.86;100136.53;5013578;28;20057;-69
2021/12/19 07:33:46;;;;;;;1.80;1.38;;;;;;;-7.31;96.00;100142.41;5013419;28;20125;-64
2021/12/19 07:36:14;;;;;;;1.80;1.25;;;;;;;-7.41;96.35;100145.72;5013392;28;20054;-69
2021/12/19 07:38:51;;;;;;;1.77;1.38;;;;;;;-7.44;97.01;100161.69;5013313;28;20057;-69
2021/12/19 07:41:19;;;;;;;1.17;1.05;;;;;;;-7.47;96.26;100170.09;5013132;28;20587;-64
2021/12/19 07:43:46;;;;;;;2.10;1.10;;;;;;;-7.43;96.16;100176.00;5013117;28;20141;-67
2021/12/19 07:46:13;;;;;;;1.65;1.08;;;;;;;-7.41;95.84;100184.47;5013368;28;20069;-69
2021/12/19 07:48:41;;;;;;;2.97;1.33;;;;;;;-7.43;95.87;100182.75;5013103;28;20488;-64
2021/12/19 07:51:08;;;;;;;1.00;1.00;;;;;;;-7.54;95.69;100190.25;5013086;28;20042;-63
2021/12/19 07:53:35;;;;;;;1.10;1.02;;;;;;;-7.50;95.69;100197.00;5013606;28;20080;-64
2021/12/19 07:56:02;;;;;;;1.80;1.25;;;;;;;-7.52;95.57;100206.28;5013371;28;20045;-63
2021/12/19 07:58:30;;;;;;;1.92;1.38;;;;;;;-7.52;95.36;100211.31;5013152;28;20137;-65
2021/12/19 08:00:57;;;;;;;2.42;1.63;;;;;;;-7.60;95.73;100217.94;5013102;28;20528;-65
2021/12/19 08:03:24;;;;;;;2.28;1.30;;;;;;;-7.68;95.54;100228.84;5013041;28;20145;-64
2021/12/19 08:05:52;;;;;;;1.77;1.00;;;;;;;-7.65;95.51;100233.09;5012894;28;20056;-65
2021/12/19 08:08:25;;;;;;;1.40;1.30;;;;;;;-7.62;95.49;100237.31;5012703;28;20140;-65
2021/12/19 08:13:36;;;;;;;1.40;1.30;;;;;;;-7.54;95.02;100259.31;5012718;28;20148;-66
2021/12/19 08:16:04;;;;;;;1.42;1.30;;;;;;;-7.78;96.07;100264.06;5012742;28;20140;-65
2021/12/19 08:18:31;;;;;;;1.65;1.50;;;;;;;-7.59;95.10;100268.50;5012799;28;20138;-65
2021/12/19 08:20:59;;;;;;;1.30;1.10;;;;;;;-7.58;95.73;100282.84;5024789;23;20145;-73
2021/12/19 08:23:26;;;;;;;1.20;1.10;;;;;;;-7.46;94.86;100282.13;5012772;28;20132;-73
2021/12/19 08:25:53;;;;;;;2.75;1.50;;;;;;;-7.49;95.66;100293.06;5012705;28;20073;-73
2021/12/19 08:28:20;;;;;;;2.15;1.38;;;;;;;-7.33;94.73;100293.22;5012512;28;20500;-73
2021/12/19 08:30:47;;;;;;;1.45;1.10;;;;;;;-7.29;94.47;100313.50;5012391;28;20064;-73
2021/12/19 08:33:14;;;;;;;1.30;1.20;;;;;;;-7.18;94.12;100310.22;5012459;28;20076;-73
2021/12/19 08:35:41;;;;;;;1.55;1.45;;;;;;;-7.25;94.25;100311.84;5012863;28;20045;-73
2021/12/19 08:38:09;;;;;;;1.83;1.40;;;;;;;-7.23;93.93;100305.97;5012611;28;20132;-73
2021/12/19 08:40:37;;;;;;;1.60;1.50;;;;;;;-7.20;94.00;100314.41;5012265;28;20514;-73
2021/12/19 08:43:05;;;;;;;2.72;1.70;;;;;;;-7.21;93.52;100316.09;5012260;28;20042;-73
2021/12/19 08:45:32;;;;;;;7.65;1.90;;;;;;;-7.25;93.69;100324.47;5012391;28;20077;-73
2021/12/19 08:48:00;;;;;;;3.65;2.17;;;;;;;-7.36;94.13;100333.63;5012570;28;20133;-73
2021/12/19 08:50:26;;;;;;;2.47;1.85;;;;;;;-7.31;94.36;100342.97;5012481;28;20136;-73
2021/12/19 08:52:53;;;;;;;2.53;1.73;;;;;;;-7.35;94.49;100351.31;5012266;28;20052;-73
2021/12/19 08:55:23;;;;;;;1.25;1.17;;;;;;;-7.26;94.61;100359.03;5012143;28;20081;-73
2021/12/19 08:57:50;;;;;;;2.50;1.70;;;;;;;-7.25;94.41;100365.75;5012113;28;20052;-73
2021/12/19 09:00:18;;;;;;;;;;;;;;;-7.14;93.67;100373.50;5012602;28;20046;-73
2021/12/19 09:02:51;;;;;;;2.70;1.67;;;;;;;-7.19;93.54;100387.75;5012274;28;19933;-74
2021/12/19 09:05:19;;;;;;;2.47;2.00;;;;;;;-7.21;94.11;100393.63;5012087;28;20085;-73
2021/12/19 09:07:46;;;;;;;3.22;1.67;;;;;;;-7.24;93.80;100395.28;5012283;28;20073;-73
2021/12/19 09:10:13;;;;;;;2.17;1.75;;;;;;;-7.19;94.32;100400.41;5012144;28;20149;-73
2021/12/19 09:12:42;;;;;;;2.35;1.40;;;;;;;-7.04;93.55;100415.75;5012120;28;20050;-73
2021/12/19 09:15:09;;;;;;;2.33;1.75;;;;;;;-7.15;93.73;100414.75;5012102;28;20511;-73
2021/12/19 09:17:37;;;;;;;2.00;1.60;;;;;;;-7.02;93.28;100421.66;5012003;28;20073;-73
2021/12/19 09:20:04;;;;;;;;;;;;;;;-7.02;93.23;100436.81;5024211;23;20133;-63
2021/12/19 09:22:31;;;;;;;1.48;1.38;;;;;;;-7.09;93.93;100434.22;5012113;28;20454;-69
2021/12/19 09:24:59;;;;;;;1.70;1.35;;;;;;;-7.14;94.24;100436.72;5012099;28;20053;-68
2021/12/19 09:27:26;;;;;;;2.35;1.40;;;;;;;-7.02;93.52;100439.34;5011937;28;20060;-68
2021/12/19 09:29:55;;;;;;;2.17;1.60;;;;;;;-6.88;93.28;100441.22;5013634;28;20053;-70
2021/12/19 09:32:22;;;;;;;2.15;1.70;;;;;;;-6.83;93.19;100440.44;5015669;28;20081;-69
2021/12/19 09:34:48;;;;;;;2.17;1.65;;;;;;;-6.81;92.90;100453.06;5015483;28;20140;-68
2021/12/19 09:37:16;;;;;;;2.15;1.70;;;;;;;-6.74;92.62;100454.00;5015632;28;20130;-67
2021/12/19 09:39:43;;;;;;;;;;;;;;;-6.83;92.92;100464.88;5015791;28;20492;-68
2021/12/19 09:42:10;;;;;;;;;;;;;;;-6.90;93.22;100469.00;5015836;28;20031;-67
2021/12/19 09:44:39;;;;;;;3.95;1.63;;;;;;;-6.68;92.50;100479.34;5015117;28;19922;-68
2021/12/19 09:47:09;;;;;;;1.77;1.50;;;;;;;-6.79;93.09;100477.56;5015524;28;20073;-68
2021/12/19 09:49:37;;;;;;;3.22;1.88;;;;;;;-6.91;92.97;100496.81;5015403;28;20134;-67
2021/12/19 09:52:07;;;;;;;4.78;2.25;;;;;;;-7.03;93.03;100505.97;5015447;28;20077;-68
2021/12/19 09:54:36;;;;;;;3.88;2.30;;;;;;;-6.81;93.53;100507.06;5015329;28;20108;-65
2021/12/19 09:57:03;;;;;;;2.00;1.70;;;;;;;-6.72;92.70;100510.53;5015296;28;20136;-65
2021/12/19 09:59:31;;;;;;;3.08;1.67;;;;;;;-6.68;92.61;100519.84;5015274;28;20133;-65
2021/12/19 10:01:58;;;;;;;3.30;1.73;;;;;;;-6.67;92.56;100529.16;5015292;28;20496;-65
2021/12/19 10:04:36;;;;;;;2.17;1.70;;;;;;;-6.71;92.99;100533.31;5015170;28;20199;-64
2021/12/19 10:07:10;;;;;;;3.17;1.85;;;;;;;-6.72;92.72;100549.34;5015010;28;20053;-65
2021/12/19 10:09:38;;;;;;;2.75;1.70;;;;;;;-6.72;93.29;100556.09;5014992;28;20045;-65
2021/12/19 10:12:36;;;;;;;2.63;1.60;;;;;;;-6.70;92.77;100565.41;5015305;28;20455;-65
2021/12/19 10:15:06;;;;;;;2.33;1.50;;;;;;;-6.71;92.73;100565.38;5014895;28;20046;-64
2021/12/19 10:17:33;;;;;;;2.28;1.50;;;;;;;-6.60;92.57;100576.50;5015070;28;20152;-67
2021/12/19 10:20:03;;;;;;;3.13;1.80;;;;;;;-6.67;92.71;100593.25;5014986;28;20061;-64
2021/12/19 10:22:32;;;;;;;2.13;1.58;;;;;;;-6.55;92.60;100584.13;5014767;28;20435;-68
2021/12/19 10:25:11;;;;;;;2.58;1.70;;;;;;;-6.67;93.28;100595.78;5014466;28;20068;-65
2021/12/19 10:27:40;;;;;;;1.63;1.52;;;;;;;-6.59;92.91;100589.16;5014795;28;20058;-69
2021/12/19 10:30:12;;;;;;;2.55;1.63;;;;;;;-6.54;93.12;100596.81;5014734;28;20128;-66
2021/12/19 10:32:51;;;;;;;3.80;1.58;;;;;;;-6.64;93.36;100600.88;5014543;28;20045;-65
2021/12/19 10:35:21;;;;;;;2.30;1.73;;;;;;;-6.53;92.89;100615.38;5014427;28;20084;-65
2021/12/19 10:37:48;;;;;;;2.72;2.00;;;;;;;-6.73;93.67;100625.22;5014270;28;20073;-65
2021/12/19 10:40:15;;;;;;;1.48;1.38;;;;;;;-6.61;93.65;100632.97;5014119;28;20141;-64
2021/12/19 10:42:47;;;;;;;2.40;1.67;;;;;;;-6.54;93.14;100642.34;5014216;28;20148;-65
2021/12/19 10:45:31;;;;;;;2.47;2.00;;;;;;;-6.56;92.95;100651.59;5014268;28;20056;-67
2021/12/19 10:48:30;;;;;;;1.65;1.50;;;;;;;-6.54;93.46;100656.69;5014065;28;20562;-68
2021/12/19 10:51:07;;;;;;;2.25;1.60;;;;;;;-6.46;93.02;100661.03;5014033;28;20042;-64
2021/12/19 10:53:37;;;;;;;1.73;1.40;;;;;;;-6.32;92.55;100665.41;5014432;28;20091;-64
2021/12/19 10:56:09;;;;;;;2.63;1.67;;;;;;;-6.36;92.70;100675.50;5014323;28;20077;-64
2021/12/19 10:58:40;;;;;;;1.75;1.63;;;;;;;-6.41;92.55;100683.88;5014425;28;20056;-68
2021/12/19 11:01:25;;;;;;;1.48;1.33;;;;;;;-6.39;92.30;100690.66;5014051;28;20054;-67
2021/12/19 11:03:57;;;;;;;2.00;1.50;;;;;;;-6.40;92.26;100698.22;5013851;28;20042;-67
2021/12/19 11:06:32;;;;;;;2.95;1.40;;;;;;;-6.47;92.15;100706.56;5013859;28;20080;-67
2021/12/19 11:09:01;;;;;;;2.80;1.23;;;;;;;-6.33;90.77;100714.34;5013670;28;20511;-68
2021/12/19 11:11:39;;;;;;;0.93;0.90;;;;;;;-6.40;91.12;100723.53;5014015;28;20133;-68
2021/12/19 11:14:06;;;;;;;1.65;1.15;;;;;;;-6.44;91.42;100725.19;5014048;28;20054;-68
2021/12/19 11:16:33;;;;;;;1.73;1.38;;;;;;;-6.55;91.63;100726.72;5013892;28;20457;-68
2021/12/19 11:19:00;;;;;;;;;;;;;;;-6.62;92.30;100725.78;5014729;28;20556;-64
2021/12/19 11:21:32;;;;;;;4.68;2.08;;;;;;;-6.64;92.51;100739.25;5013740;28;19964;-68
2021/12/19 11:24:02;;;;;;;2.78;1.70;;;;;;;-6.63;92.30;100751.06;5013369;28;20456;-65
2021/12/19 11:26:29;;;;;;;3.55;1.45;;;;;;;-6.65;92.32;100745.16;5013872;28;20074;-69
2021/12/19 11:28:57;;;;;;;4.32;1.77;;;;;;;-6.65;92.72;100757.78;5013605;28;20064;-69
2021/12/19 11:31:28;;;;;;;3.30;1.90;;;;;;;-6.76;92.85;100762.66;5013334;28;20133;-69
2021/12/19 11:34:17;;;;;;;3.88;2.00;;;;;;;-6.86;93.48;100768.41;5013297;28;20050;-67
2021/12/19 11:36:51;;;;;;;2.58;1.70;;;;;;;-6.85;93.55;100781.09;5013217;28;20053;-64
2021/12/19 11:39:20;;;;;;;2.88;1.80;;;;;;;-6.90;93.39;100784.38;5013366;28;20144;-64
2021/12/19 11:42:05;;;;;;;3.92;1.83;;;;;;;-7.07;94.20;100792.50;5013373;28;20137;-66
2021/12/19 11:44:36;;;;;;;5.25;2.85;;;;;;;-6.96;93.99;100801.97;4999124;28;20571;-64
2021/12/19 11:47:10;;;;;;;8.43;3.45;;;;;;;-7.03;93.92;100806.09;5013097;28;20095;-66
2021/12/19 11:49:37;;;;;;;14.35;4.13;;;;;;;-7.02;94.23;100815.38;5013114;28;20056;-67
2021/12/19 11:52:37;;;;;;;6.80;3.15;;;;;;;-7.09;93.66;100821.13;5012746;28;20054;-63
2021/12/19 11:55:37;;;;;;;3.95;2.22;;;;;;;-7.00;92.95;100831.44;4933580;29;20129;-65
2021/12/19 11:58:19;;;;;;;2.15;1.60;;;;;;;-7.08;92.57;100850.69;4952649;29;20077;-69
2021/12/19 12:00:53;;;;;;;1.10;1.00;;;;;;;-7.01;91.91;100855.03;5006238;28;20509;-69
2021/12/19 12:03:31;;;;;;;1.13;1.10;;;;;;;-7.11;92.45;100868.34;5013016;28;20133;-69
2021/12/19 12:06:37;;;;;;;2.08;1.20;;;;;;;-7.08;92.40;100868.38;5012718;28;20140;-70
2021/12/19 12:09:24;;;;;;;0.90;0.90;;;;;;;-7.12;92.45;100874.19;5009449;28;20076;-69
2021/12/19 12:12:20;;;;;;;1.60;1.20;;;;;;;-7.19;92.82;100885.00;5012720;28;20480;-68
2021/12/19 12:15:04;;;;;;;;;;;;;;;-7.25;93.05;100895.84;5013124;28;20149;-63
2021/12/19 12:17:43;;;;;;;1.40;1.30;;;;;;;-7.28;93.10;100905.91;5012871;28;19960;-67
2021/12/19 12:20:23;;;;;;;1.50;1.30;;;;;;;-7.38;93.52;100906.56;5012956;28;20053;-69
2021/12/19 12:23:00;;;;;;;1.83;1.40;;;;;;;-7.41;93.29;100919.13;5012534;28;20088;-66
2021/12/19 12:25:34;;;;;;;;;;;;;;;-7.49;93.31;100932.47;5012876;28;20060;-66
2021/12/19 12:28:06;;;;;;;0.88;0.88;;;;;;;-7.35;92.36;100939.47;5012404;28;20421;-67
2021/12/19 12:30:41;;;;;;;1.98;1.40;;;;;;;-7.43;92.31;100941.84;5012762;28;20049;-64
2021/12/19 12:33:11;;;;;;;1.52;1.15;;;;;;;-7.51;92.71;100948.41;5012581;28;20057;-68
2021/12/19 12:35:40;;;;;;;1.38;1.23;;;;;;;-7.50;92.70;100955.16;5012507;28;20078;-67
2021/12/19 12:38:08;;;;;;;1.42;1.10;;;;;;;-7.52;92.48;100959.34;5012591;28;20128;-66
2021/12/19 12:40:47;;;;;;;1.13;1.10;;;;;;;-7.52;91.79;100960.19;5012463;28;20080;-68
2021/12/19 12:43:17;;;;;;;1.33;1.02;;;;;;;-7.58;92.59;100969.31;5012573;28;20539;-66